sensor_id;sensor_type;location;lat;lon;timestamp;temperature;humidity
2054;DHT22;1032;52.542;13.440;2022-11-15T00:01:07;7.50;99.90
2054;DHT22;1032;52.542;13.440;2022-11-15T00:03:53;7.80;99.90
2054;DHT22;1032;52.542;13.440;2022-11-15T00:06:38;7.50;99.90
2054;DHT22;1032;52.542;13.440;2022-11-15T00:09:23;7.80;99.90
2054;DHT22;1032;52.542;13.440;2022-11-15T00:12:09;8.10;99.90
2054;DHT22;1032;52.542;13.440;2022-11-15T00:14:54;7.30;99.90
2054;DHT22;1032;52.542;13.440;2022-11-15T00:17:40;7.40;99.90
2054;DHT22;1032;52.542;13.440;2022-11-15T00:20:26;7.60;99.90
2054;DHT22;1032;52.542;13.440;2022-11-15T00:23:11;7.60;99.90
2054;DHT22;1032;52.542;13.440;2022-11-15T00:25:57;7.30;99.90
2054;DHT22;1032;52.542;13.440;2022-11-15T00:28:43;7.30;99.90
2054;DHT22;1032;52.542;13.440;2022-11-15T00:31:28;7.80;99.90
2054;DHT22;1032;52.542;13.440;2022-11-15T00:34:15;7.90;99.90
2054;DHT22;1032;52.542;13.440;2022-11-15T00:37:01;7.60;99.90
2054;DHT22;1032;52.542;13.440;2022-11-15T00:39:46;7.40;99.90
2054;DHT22;1032;52.542;13.440;2022-11-15T00:42:31;7.80;99.90
2054;DHT22;1032;52.542;13.440;2022-11-15T00:45:17;7.40;99.90
2054;DHT22;1032;52.542;13.440;2022-11-15T00:48:02;7.50;99.90
2054;DHT22;1032;52.542;13.440;2022-11-15T00:50:50;7.30;99.90
2054;DHT22;1032;52.542;13.440;2022-11-15T00:53:35;7.30;99.90
2054;DHT22;1032;52.542;13.440;2022-11-15T00:56:20;8.00;99.90
2054;DHT22;1032;52.542;13.440;2022-11-15T00:59:05;7.30;99.90
2054;DHT22;1032;52.542;13.440;2022-11-15T01:01:50;7.60;99.90
2054;DHT22;1032;52.542;13.440;2022-11-15T01:04:36;7.40;99.90
2054;DHT22;1032;52.542;13.440;2022-11-15T01:07:22;7.60;99.90
2054;DHT22;1032;52.542;13.440;2022-11-15T01:10:08;7.40;99.90
2054;DHT22;1032;52.542;13.440;2022-11-15T01:12:54;7.50;99.90
2054;DHT22;1032;52.542;13.440;2022-11-15T01:15:40;7.10;99.90
2054;DHT22;1032;52.542;13.440;2022-11-15T01:18:25;7.30;99.90
2054;DHT22;1032;52.542;13.440;2022-11-15T01:21:12;7.40;99.90
2054;DHT22;1032;52.542;13.440;2022-11-15T01:23:59;7.20;99.90
2054;DHT22;1032;52.542;13.440;2022-11-15T01:26:45;7.20;99.90
2054;DHT22;1032;52.542;13.440;2022-11-15T01:29:30;7.40;99.90
2054;DHT22;1032;52.542;13.440;2022-11-15T01:32:15;7.30;99.90
2054;DHT22;1032;52.542;13.440;2022-11-15T01:35:00;7.20;99.90
2054;DHT22;1032;52.542;13.440;2022-11-15T01:37:46;6.90;99.90
2054;DHT22;1032;52.542;13.440;2022-11-15T01:40:32;7.30;99.90
2054;DHT22;1032;52.542;13.440;2022-11-15T01:43:22;7.20;99.90
2054;DHT22;1032;52.542;13.440;2022-11-15T01:46:29;7.80;99.90
2054;DHT22;1032;52.542;13.440;2022-11-15T01:49:18;7.10;99.90
2054;DHT22;1032;52.542;13.440;2022-11-15T01:52:07;7.70;99.90
2054;DHT22;1032;52.542;13.440;2022-11-15T01:55:02;7.10;99.90
2054;DHT22;1032;52.542;13.440;2022-11-15T01:57:52;7.10;99.90
2054;DHT22;1032;52.542;13.440;2022-11-15T02:00:38;7.20;99.90
2054;DHT22;1032;52.542;13.440;2022-11-15T02:03:31;6.90;99.90
2054;DHT22;1032;52.542;13.440;2022-11-15T02:06:18;7.00;99.90
2054;DHT22;1032;52.542;13.440;2022-11-15T02:09:03;7.00;99.90
2054;DHT22;1032;52.542;13.440;2022-11-15T02:11:50;7.10;99.90
2054;DHT22;1032;52.542;13.440;2022-11-15T02:14:41;6.90;99.90
2054;DHT22;1032;52.542;13.440;2022-11-15T02:17:37;7.10;99.90
2054;DHT22;1032;52.542;13.440;2022-11-15T02:20:41;7.00;99.90
2054;DHT22;1032;52.542;13.440;2022-11-15T02:23:45;7.00;99.90
2054;DHT22;1032;52.542;13.440;2022-11-15T02:33:14;7.10;99.90
2054;DHT22;1032;52.542;13.440;2022-11-15T02:36:09;7.20;99.90
2054;DHT22;1032;52.542;13.440;2022-11-15T02:38:59;7.10;99.90
2054;DHT22;1032;52.542;13.440;2022-11-15T02:41:49;6.80;99.90
2054;DHT22;1032;52.542;13.440;2022-11-15T02:44:40;7.10;99.90
2054;DHT22;1032;52.542;13.440;2022-11-15T02:47:31;7.50;99.90
2054;DHT22;1032;52.542;13.440;2022-11-15T02:50:21;7.10;99.90
2054;DHT22;1032;52.542;13.440;2022-11-15T02:53:10;7.30;99.90
2054;DHT22;1032;52.542;13.440;2022-11-15T02:55:56;6.80;99.90
2054;DHT22;1032;52.542;13.440;2022-11-15T02:58:52;6.60;99.90
2054;DHT22;1032;52.542;13.440;2022-11-15T03:01:47;7.30;99.90
2054;DHT22;1032;52.542;13.440;2022-11-15T03:04:41;6.80;99.90
2054;DHT22;1032;52.542;13.440;2022-11-15T03:07:34;6.50;99.90
2054;DHT22;1032;52.542;13.440;2022-11-15T03:10:25;6.50;99.90
2054;DHT22;1032;52.542;13.440;2022-11-15T03:13:19;6.80;99.90
2054;DHT22;1032;52.542;13.440;2022-11-15T03:16:11;6.70;99.90
2054;DHT22;1032;52.542;13.440;2022-11-15T03:19:03;7.10;99.90
2054;DHT22;1032;52.542;13.440;2022-11-15T03:21:51;7.10;99.90
2054;DHT22;1032;52.542;13.440;2022-11-15T03:24:39;6.80;99.90
2054;DHT22;1032;52.542;13.440;2022-11-15T03:27:28;6.80;99.90
2054;DHT22;1032;52.542;13.440;2022-11-15T03:30:16;6.40;99.90
2054;DHT22;1032;52.542;13.440;2022-11-15T03:33:02;7.00;99.90
2054;DHT22;1032;52.542;13.440;2022-11-15T03:35:49;6.60;99.90
2054;DHT22;1032;52.542;13.440;2022-11-15T03:38:34;6.60;99.90
2054;DHT22;1032;52.542;13.440;2022-11-15T03:41:23;6.70;99.90
2054;DHT22;1032;52.542;13.440;2022-11-15T03:44:15;6.90;99.90
2054;DHT22;1032;52.542;13.440;2022-11-15T03:47:08;6.80;99.90
2054;DHT22;1032;52.542;13.440;2022-11-15T03:49:59;7.40;99.90
2054;DHT22;1032;52.542;13.440;2022-11-15T03:52:46;6.60;99.90
2054;DHT22;1032;52.542;13.440;2022-11-15T03:55:32;6.80;99.90
2054;DHT22;1032;52.542;13.440;2022-11-15T03:58:19;7.00;99.90
2054;DHT22;1032;52.542;13.440;2022-11-15T04:01:05;7.30;99.90
2054;DHT22;1032;52.542;13.440;2022-11-15T04:03:50;6.80;99.90
2054;DHT22;1032;52.542;13.440;2022-11-15T04:06:36;6.80;99.90
2054;DHT22;1032;52.542;13.440;2022-11-15T04:09:21;6.80;99.90
2054;DHT22;1032;52.542;13.440;2022-11-15T04:12:07;6.80;99.90
2054;DHT22;1032;52.542;13.440;2022-11-15T04:14:53;7.40;99.90
2054;DHT22;1032;52.542;13.440;2022-11-15T04:17:53;6.80;99.90
2054;DHT22;1032;52.542;13.440;2022-11-15T04:20:39;6.70;99.90
2054;DHT22;1032;52.542;13.440;2022-11-15T04:23:42;6.90;99.90
2054;DHT22;1032;52.542;13.440;2022-11-15T04:26:44;7.00;99.90
2054;DHT22;1032;52.542;13.440;2022-11-15T04:29:30;6.90;99.90
2054;DHT22;1032;52.542;13.440;2022-11-15T04:32:22;6.90;99.90
2054;DHT22;1032;52.542;13.440;2022-11-15T04:35:08;7.00;99.90
2054;DHT22;1032;52.542;13.440;2022-11-15T04:37:54;6.90;99.90
2054;DHT22;1032;52.542;13.440;2022-11-15T04:40:39;6.90;99.90
2054;DHT22;1032;52.542;13.440;2022-11-15T04:43:25;6.70;99.90
2054;DHT22;1032;52.542;13.440;2022-11-15T04:46:10;6.70;99.90
2054;DHT22;1032;52.542;13.440;2022-11-15T04:48:56;7.10;99.90
2054;DHT22;1032;52.542;13.440;2022-11-15T04:51:41;6.70;99.90
2054;DHT22;1032;52.542;13.440;2022-11-15T04:54:27;6.40;99.90
2054;DHT22;1032;52.542;13.440;2022-11-15T04:57:12;7.00;99.90
2054;DHT22;1032;52.542;13.440;2022-11-15T04:59:57;6.80;99.90
2054;DHT22;1032;52.542;13.440;2022-11-15T05:02:43;7.00;99.90
2054;DHT22;1032;52.542;13.440;2022-11-15T05:05:47;6.90;99.90
2054;DHT22;1032;52.542;13.440;2022-11-15T05:08:33;7.10;99.90
2054;DHT22;1032;52.542;13.440;2022-11-15T05:11:18;6.50;99.90
2054;DHT22;1032;52.542;13.440;2022-11-15T05:14:04;6.60;99.90
2054;DHT22;1032;52.542;13.440;2022-11-15T05:16:49;7.00;99.90
2054;DHT22;1032;52.542;13.440;2022-11-15T05:19:35;6.50;99.90
2054;DHT22;1032;52.542;13.440;2022-11-15T05:22:22;6.60;99.90
2054;DHT22;1032;52.542;13.440;2022-11-15T05:25:08;6.80;99.90
2054;DHT22;1032;52.542;13.440;2022-11-15T05:27:53;6.80;99.90
2054;DHT22;1032;52.542;13.440;2022-11-15T05:30:39;6.90;99.90
2054;DHT22;1032;52.542;13.440;2022-11-15T05:33:24;7.30;99.90
2054;DHT22;1032;52.542;13.440;2022-11-15T05:36:13;6.30;99.90
2054;DHT22;1032;52.542;13.440;2022-11-15T05:39:01;7.00;99.90
2054;DHT22;1032;52.542;13.440;2022-11-15T05:41:50;6.80;99.90
2054;DHT22;1032;52.542;13.440;2022-11-15T05:44:40;6.80;99.90
2054;DHT22;1032;52.542;13.440;2022-11-15T05:47:27;7.00;99.90
2054;DHT22;1032;52.542;13.440;2022-11-15T05:50:16;6.90;99.90
2054;DHT22;1032;52.542;13.440;2022-11-15T05:53:02;6.80;99.90
2054;DHT22;1032;52.542;13.440;2022-11-15T05:55:49;7.10;99.90
2054;DHT22;1032;52.542;13.440;2022-11-15T05:58:34;7.10;99.90
2054;DHT22;1032;52.542;13.440;2022-11-15T06:01:21;6.50;99.90
2054;DHT22;1032;52.542;13.440;2022-11-15T06:04:06;6.80;99.90
2054;DHT22;1032;52.542;13.440;2022-11-15T06:06:51;7.30;99.90
2054;DHT22;1032;52.542;13.440;2022-11-15T06:09:37;6.90;99.90
2054;DHT22;1032;52.542;13.440;2022-11-15T06:12:24;6.60;99.90
2054;DHT22;1032;52.542;13.440;2022-11-15T06:15:09;6.90;99.90
2054;DHT22;1032;52.542;13.440;2022-11-15T06:17:56;6.50;99.90
2054;DHT22;1032;52.542;13.440;2022-11-15T06:20:42;7.00;99.90
2054;DHT22;1032;52.542;13.440;2022-11-15T06:23:28;6.20;99.90
2054;DHT22;1032;52.542;13.440;2022-11-15T06:26:16;6.70;99.90
2054;DHT22;1032;52.542;13.440;2022-11-15T06:29:03;7.10;99.90
2054;DHT22;1032;52.542;13.440;2022-11-15T06:31:49;6.90;99.90
2054;DHT22;1032;52.542;13.440;2022-11-15T06:34:34;7.00;99.90
2054;DHT22;1032;52.542;13.440;2022-11-15T06:37:19;7.20;99.90
2054;DHT22;1032;52.542;13.440;2022-11-15T06:40:05;6.90;99.90
2054;DHT22;1032;52.542;13.440;2022-11-15T06:42:57;6.80;99.90
2054;DHT22;1032;52.542;13.440;2022-11-15T06:45:44;6.80;99.90
2054;DHT22;1032;52.542;13.440;2022-11-15T06:48:30;6.30;99.90
2054;DHT22;1032;52.542;13.440;2022-11-15T06:51:16;6.60;99.90
2054;DHT22;1032;52.542;13.440;2022-11-15T06:54:01;6.90;99.90
2054;DHT22;1032;52.542;13.440;2022-11-15T06:56:46;6.90;99.90
2054;DHT22;1032;52.542;13.440;2022-11-15T06:59:32;7.10;99.90
2054;DHT22;1032;52.542;13.440;2022-11-15T07:02:19;7.00;99.90
2054;DHT22;1032;52.542;13.440;2022-11-15T07:05:05;6.90;99.90
2054;DHT22;1032;52.542;13.440;2022-11-15T07:07:52;7.20;99.90
2054;DHT22;1032;52.542;13.440;2022-11-15T07:10:37;7.30;99.90
2054;DHT22;1032;52.542;13.440;2022-11-15T07:13:24;7.60;99.90
2054;DHT22;1032;52.542;13.440;2022-11-15T07:16:10;7.10;99.90
2054;DHT22;1032;52.542;13.440;2022-11-15T07:18:56;7.00;99.90
2054;DHT22;1032;52.542;13.440;2022-11-15T07:21:42;7.20;99.90
2054;DHT22;1032;52.542;13.440;2022-11-15T07:24:28;7.40;99.90
2054;DHT22;1032;52.542;13.440;2022-11-15T07:27:13;7.30;99.90
2054;DHT22;1032;52.542;13.440;2022-11-15T07:29:59;7.20;99.90
2054;DHT22;1032;52.542;13.440;2022-11-15T07:32:45;7.40;99.90
2054;DHT22;1032;52.542;13.440;2022-11-15T07:35:31;7.00;99.90
2054;DHT22;1032;52.542;13.440;2022-11-15T07:38:17;7.30;99.90
2054;DHT22;1032;52.542;13.440;2022-11-15T07:41:05;7.70;99.90
2054;DHT22;1032;52.542;13.440;2022-11-15T07:43:51;7.40;99.90
2054;DHT22;1032;52.542;13.440;2022-11-15T07:46:36;7.70;99.90
2054;DHT22;1032;52.542;13.440;2022-11-15T07:49:22;7.50;99.90
2054;DHT22;1032;52.542;13.440;2022-11-15T07:52:08;7.60;99.90
2054;DHT22;1032;52.542;13.440;2022-11-15T07:54:54;7.50;99.90
2054;DHT22;1032;52.542;13.440;2022-11-15T07:57:39;7.50;99.90
2054;DHT22;1032;52.542;13.440;2022-11-15T08:00:25;7.80;99.90
2054;DHT22;1032;52.542;13.440;2022-11-15T08:03:12;7.70;99.90
2054;DHT22;1032;52.542;13.440;2022-11-15T08:05:57;7.90;99.90
2054;DHT22;1032;52.542;13.440;2022-11-15T08:08:44;8.20;99.90
2054;DHT22;1032;52.542;13.440;2022-11-15T08:11:31;8.30;99.90
2054;DHT22;1032;52.542;13.440;2022-11-15T08:14:16;7.90;99.90
2054;DHT22;1032;52.542;13.440;2022-11-15T08:17:01;8.30;99.90
2054;DHT22;1032;52.542;13.440;2022-11-15T08:19:47;8.50;99.90
2054;DHT22;1032;52.542;13.440;2022-11-15T08:22:33;7.90;99.90
2054;DHT22;1032;52.542;13.440;2022-11-15T08:25:19;8.20;99.90
2054;DHT22;1032;52.542;13.440;2022-11-15T08:28:06;8.40;99.90
2054;DHT22;1032;52.542;13.440;2022-11-15T08:30:52;8.20;99.90
2054;DHT22;1032;52.542;13.440;2022-11-15T08:33:37;8.30;99.90
2054;DHT22;1032;52.542;13.440;2022-11-15T08:36:22;8.40;99.90
2054;DHT22;1032;52.542;13.440;2022-11-15T08:39:10;8.30;99.90
2054;DHT22;1032;52.542;13.440;2022-11-15T08:41:56;8.30;99.90
2054;DHT22;1032;52.542;13.440;2022-11-15T08:44:42;8.60;99.90
2054;DHT22;1032;52.542;13.440;2022-11-15T08:47:27;8.30;99.90
2054;DHT22;1032;52.542;13.440;2022-11-15T08:50:13;9.00;99.90
2054;DHT22;1032;52.542;13.440;2022-11-15T08:53:02;8.80;99.90
2054;DHT22;1032;52.542;13.440;2022-11-15T08:55:48;8.50;99.90
2054;DHT22;1032;52.542;13.440;2022-11-15T08:58:36;8.70;99.90
2054;DHT22;1032;52.542;13.440;2022-11-15T09:01:21;8.30;99.90
2054;DHT22;1032;52.542;13.440;2022-11-15T09:04:06;8.70;99.90
2054;DHT22;1032;52.542;13.440;2022-11-15T09:06:52;8.90;99.90
2054;DHT22;1032;52.542;13.440;2022-11-15T09:09:37;8.90;99.90
2054;DHT22;1032;52.542;13.440;2022-11-15T09:12:23;9.40;99.90
2054;DHT22;1032;52.542;13.440;2022-11-15T09:15:10;8.90;99.90
2054;DHT22;1032;52.542;13.440;2022-11-15T09:17:58;9.20;99.90
2054;DHT22;1032;52.542;13.440;2022-11-15T09:20:43;9.40;99.90
2054;DHT22;1032;52.542;13.440;2022-11-15T09:23:29;9.40;99.90
2054;DHT22;1032;52.542;13.440;2022-11-15T09:26:14;9.40;99.90
2054;DHT22;1032;52.542;13.440;2022-11-15T09:29:00;9.20;99.90
2054;DHT22;1032;52.542;13.440;2022-11-15T09:31:47;9.90;99.90
2054;DHT22;1032;52.542;13.440;2022-11-15T09:34:32;9.30;99.90
2054;DHT22;1032;52.542;13.440;2022-11-15T09:37:18;9.70;99.90
2054;DHT22;1032;52.542;13.440;2022-11-15T09:40:03;9.60;99.90
2054;DHT22;1032;52.542;13.440;2022-11-15T09:42:59;9.60;99.90
2054;DHT22;1032;52.542;13.440;2022-11-15T09:45:56;9.70;99.90
2054;DHT22;1032;52.542;13.440;2022-11-15T09:48:51;9.50;99.90
2054;DHT22;1032;52.542;13.440;2022-11-15T09:51:39;9.40;99.90
2054;DHT22;1032;52.542;13.440;2022-11-15T09:54:21;9.10;99.90
2054;DHT22;1032;52.542;13.440;2022-11-15T09:56:50;9.70;99.90
2054;DHT22;1032;52.542;13.440;2022-11-15T09:59:27;9.70;99.90
2054;DHT22;1032;52.542;13.440;2022-11-15T10:02:01;9.60;99.90
2054;DHT22;1032;52.542;13.440;2022-11-15T10:04:31;9.80;99.90
2054;DHT22;1032;52.542;13.440;2022-11-15T10:07:01;9.60;99.90
2054;DHT22;1032;52.542;13.440;2022-11-15T10:09:33;10.20;99.90
2054;DHT22;1032;52.542;13.440;2022-11-15T10:12:02;9.60;99.90
2054;DHT22;1032;52.542;13.440;2022-11-15T10:14:30;9.80;99.90
2054;DHT22;1032;52.542;13.440;2022-11-15T10:17:52;10.30;99.90
2054;DHT22;1032;52.542;13.440;2022-11-15T10:20:25;10.10;99.90
2054;DHT22;1032;52.542;13.440;2022-11-15T10:22:53;10.10;99.90
2054;DHT22;1032;52.542;13.440;2022-11-15T10:25:24;10.30;99.90
2054;DHT22;1032;52.542;13.440;2022-11-15T10:27:55;10.10;99.90
2054;DHT22;1032;52.542;13.440;2022-11-15T10:30:23;10.60;99.90
2054;DHT22;1032;52.542;13.440;2022-11-15T10:32:50;10.50;99.90
2054;DHT22;1032;52.542;13.440;2022-11-15T10:35:25;10.40;99.90
2054;DHT22;1032;52.542;13.440;2022-11-15T10:38:04;10.20;99.90
2054;DHT22;1032;52.542;13.440;2022-11-15T10:40:32;10.50;99.90
2054;DHT22;1032;52.542;13.440;2022-11-15T10:43:06;10.50;99.90
2054;DHT22;1032;52.542;13.440;2022-11-15T10:45:39;10.80;99.90
2054;DHT22;1032;52.542;13.440;2022-11-15T10:48:23;10.20;99.90
2054;DHT22;1032;52.542;13.440;2022-11-15T10:50:52;10.50;99.90
2054;DHT22;1032;52.542;13.440;2022-11-15T10:53:28;10.40;99.90
2054;DHT22;1032;52.542;13.440;2022-11-15T10:56:00;10.60;99.90
2054;DHT22;1032;52.542;13.440;2022-11-15T10:58:32;11.10;99.90
2054;DHT22;1032;52.542;13.440;2022-11-15T11:01:10;10.80;99.90
2054;DHT22;1032;52.542;13.440;2022-11-15T11:03:39;10.70;99.90
2054;DHT22;1032;52.542;13.440;2022-11-15T11:06:10;10.50;99.90
2054;DHT22;1032;52.542;13.440;2022-11-15T11:08:37;10.70;99.90
2054;DHT22;1032;52.542;13.440;2022-11-15T11:11:04;10.30;99.90
2054;DHT22;1032;52.542;13.440;2022-11-15T11:13:33;10.70;99.90
2054;DHT22;1032;52.542;13.440;2022-11-15T11:16:15;10.90;99.90
2054;DHT22;1032;52.542;13.440;2022-11-15T11:18:49;10.70;99.90
2054;DHT22;1032;52.542;13.440;2022-11-15T11:21:24;11.00;99.90
2054;DHT22;1032;52.542;13.440;2022-11-15T11:23:56;11.00;99.90
2054;DHT22;1032;52.542;13.440;2022-11-15T11:26:35;11.20;99.90
2054;DHT22;1032;52.542;13.440;2022-11-15T11:29:16;11.20;99.90
2054;DHT22;1032;52.542;13.440;2022-11-15T11:31:52;11.00;99.90
2054;DHT22;1032;52.542;13.440;2022-11-15T11:34:33;10.90;99.90
2054;DHT22;1032;52.542;13.440;2022-11-15T11:37:10;11.40;99.90
2054;DHT22;1032;52.542;13.440;2022-11-15T11:39:44;11.10;99.90
2054;DHT22;1032;52.542;13.440;2022-11-15T11:42:16;11.20;99.90
2054;DHT22;1032;52.542;13.440;2022-11-15T11:44:54;11.20;99.90
2054;DHT22;1032;52.542;13.440;2022-11-15T11:47:31;11.30;99.90
2054;DHT22;1032;52.542;13.440;2022-11-15T11:50:01;11.00;99.90
2054;DHT22;1032;52.542;13.440;2022-11-15T11:52:34;11.20;99.90
2054;DHT22;1032;52.542;13.440;2022-11-15T11:55:05;11.30;99.90
2054;DHT22;1032;52.542;13.440;2022-11-15T11:57:41;11.40;99.90
2054;DHT22;1032;52.542;13.440;2022-11-15T12:00:17;11.20;99.90
2054;DHT22;1032;52.542;13.440;2022-11-15T12:02:48;11.40;99.90
2054;DHT22;1032;52.542;13.440;2022-11-15T12:05:22;11.60;99.90
2054;DHT22;1032;52.542;13.440;2022-11-15T12:07:58;11.40;99.90
2054;DHT22;1032;52.542;13.440;2022-11-15T12:10:30;11.80;99.90
2054;DHT22;1032;52.542;13.440;2022-11-15T12:13:02;11.80;99.90
2054;DHT22;1032;52.542;13.440;2022-11-15T12:15:33;11.40;99.90
2054;DHT22;1032;52.542;13.440;2022-11-15T12:18:01;11.50;99.90
2054;DHT22;1032;52.542;13.440;2022-11-15T12:20:33;11.80;99.90
2054;DHT22;1032;52.542;13.440;2022-11-15T12:23:06;11.50;99.90
2054;DHT22;1032;52.542;13.440;2022-11-15T12:25:41;11.30;99.90
2054;DHT22;1032;52.542;13.440;2022-11-15T12:28:14;12.00;99.90
2054;DHT22;1032;52.542;13.440;2022-11-15T12:30:45;11.40;99.90
2054;DHT22;1032;52.542;13.440;2022-11-15T12:33:32;11.50;99.90
2054;DHT22;1032;52.542;13.440;2022-11-15T12:36:01;11.50;99.90
2054;DHT22;1032;52.542;13.440;2022-11-15T12:38:55;11.80;99.90
2054;DHT22;1032;52.542;13.440;2022-11-15T12:41:26;11.70;99.90
2054;DHT22;1032;52.542;13.440;2022-11-15T12:43:53;12.10;99.90
2054;DHT22;1032;52.542;13.440;2022-11-15T12:46:24;11.70;99.90
2054;DHT22;1032;52.542;13.440;2022-11-15T12:52:06;11.60;99.90
2054;DHT22;1032;52.542;13.440;2022-11-15T12:54:56;11.60;99.90
2054;DHT22;1032;52.542;13.440;2022-11-15T12:57:43;11.90;99.90
2054;DHT22;1032;52.542;13.440;2022-11-15T13:00:43;11.90;99.90
2054;DHT22;1032;52.542;13.440;2022-11-15T13:03:20;11.60;99.90
2054;DHT22;1032;52.542;13.440;2022-11-15T13:05:57;11.50;99.90
2054;DHT22;1032;52.542;13.440;2022-11-15T13:08:38;12.20;99.90
2054;DHT22;1032;52.542;13.440;2022-11-15T13:11:42;11.90;99.90
2054;DHT22;1032;52.542;13.440;2022-11-15T13:14:43;11.90;99.90
2054;DHT22;1032;52.542;13.440;2022-11-15T13:17:28;12.00;99.90
2054;DHT22;1032;52.542;13.440;2022-11-15T13:20:00;11.30;99.90
2054;DHT22;1032;52.542;13.440;2022-11-15T13:22:38;12.40;99.90
2054;DHT22;1032;52.542;13.440;2022-11-15T13:25:31;12.10;99.90
2054;DHT22;1032;52.542;13.440;2022-11-15T13:28:08;11.30;99.90
2054;DHT22;1032;52.542;13.440;2022-11-15T13:30:37;11.80;99.90
2054;DHT22;1032;52.542;13.440;2022-11-15T13:33:09;11.70;99.90
2054;DHT22;1032;52.542;13.440;2022-11-15T13:35:39;11.80;99.90
2054;DHT22;1032;52.542;13.440;2022-11-15T13:38:19;11.90;99.90
2054;DHT22;1032;52.542;13.440;2022-11-15T13:40:51;12.10;99.90
2054;DHT22;1032;52.542;13.440;2022-11-15T13:43:27;11.90;99.90
2054;DHT22;1032;52.542;13.440;2022-11-15T13:46:07;12.30;99.90
2054;DHT22;1032;52.542;13.440;2022-11-15T13:48:37;12.00;99.90
2054;DHT22;1032;52.542;13.440;2022-11-15T13:51:06;12.00;99.90
2054;DHT22;1032;52.542;13.440;2022-11-15T13:53:39;11.90;99.90
2054;DHT22;1032;52.542;13.440;2022-11-15T13:56:06;12.10;99.90
2054;DHT22;1032;52.542;13.440;2022-11-15T13:58:36;11.90;99.90
2054;DHT22;1032;52.542;13.440;2022-11-15T14:01:04;12.20;99.90
2054;DHT22;1032;52.542;13.440;2022-11-15T14:03:33;12.20;99.90
2054;DHT22;1032;52.542;13.440;2022-11-15T14:06:04;12.10;99.90
2054;DHT22;1032;52.542;13.440;2022-11-15T14:08:34;12.30;99.90
2054;DHT22;1032;52.542;13.440;2022-11-15T14:11:22;12.00;99.90
2054;DHT22;1032;52.542;13.440;2022-11-15T14:14:12;12.20;99.90
2054;DHT22;1032;52.542;13.440;2022-11-15T14:16:42;12.20;99.90
2054;DHT22;1032;52.542;13.440;2022-11-15T14:19:11;12.10;99.90
2054;DHT22;1032;52.542;13.440;2022-11-15T14:21:39;12.20;99.90
2054;DHT22;1032;52.542;13.440;2022-11-15T14:24:30;12.20;99.90
2054;DHT22;1032;52.542;13.440;2022-11-15T14:27:22;11.50;99.90
2054;DHT22;1032;52.542;13.440;2022-11-15T14:29:50;11.90;99.90
2054;DHT22;1032;52.542;13.440;2022-11-15T14:32:19;12.10;99.90
2054;DHT22;1032;52.542;13.440;2022-11-15T14:34:46;12.40;99.90
2054;DHT22;1032;52.542;13.440;2022-11-15T14:37:20;11.80;99.90
2054;DHT22;1032;52.542;13.440;2022-11-15T14:39:48;12.00;99.90
2054;DHT22;1032;52.542;13.440;2022-11-15T14:42:16;12.00;99.90
2054;DHT22;1032;52.542;13.440;2022-11-15T14:44:42;11.90;99.90
2054;DHT22;1032;52.542;13.440;2022-11-15T14:47:09;12.00;99.90
2054;DHT22;1032;52.542;13.440;2022-11-15T14:49:36;12.10;99.90
2054;DHT22;1032;52.542;13.440;2022-11-15T14:52:07;12.00;99.90
2054;DHT22;1032;52.542;13.440;2022-11-15T14:54:34;12.00;99.90
2054;DHT22;1032;52.542;13.440;2022-11-15T14:57:01;11.80;99.90
2054;DHT22;1032;52.542;13.440;2022-11-15T14:59:28;12.00;99.90
2054;DHT22;1032;52.542;13.440;2022-11-15T15:01:54;11.70;99.90
2054;DHT22;1032;52.542;13.440;2022-11-15T15:04:21;11.70;99.90
2054;DHT22;1032;52.542;13.440;2022-11-15T15:06:48;11.60;99.90
2054;DHT22;1032;52.542;13.440;2022-11-15T15:09:14;11.80;99.90
2054;DHT22;1032;52.542;13.440;2022-11-15T15:11:41;11.70;99.90
2054;DHT22;1032;52.542;13.440;2022-11-15T15:14:09;11.50;99.90
2054;DHT22;1032;52.542;13.440;2022-11-15T15:16:35;11.70;99.90
2054;DHT22;1032;52.542;13.440;2022-11-15T15:19:03;11.80;99.90
2054;DHT22;1032;52.542;13.440;2022-11-15T15:21:29;11.60;99.90
2054;DHT22;1032;52.542;13.440;2022-11-15T15:23:56;11.30;99.90
2054;DHT22;1032;52.542;13.440;2022-11-15T15:26:23;11.70;99.90
2054;DHT22;1032;52.542;13.440;2022-11-15T15:28:50;11.40;99.90
2054;DHT22;1032;52.542;13.440;2022-11-15T15:31:18;11.50;99.90
2054;DHT22;1032;52.542;13.440;2022-11-15T15:33:45;11.70;99.90
2054;DHT22;1032;52.542;13.440;2022-11-15T15:36:13;11.60;99.90
2054;DHT22;1032;52.542;13.440;2022-11-15T15:38:40;11.40;99.90
2054;DHT22;1032;52.542;13.440;2022-11-15T15:41:10;11.30;99.90
2054;DHT22;1032;52.542;13.440;2022-11-15T15:43:36;11.40;99.90
2054;DHT22;1032;52.542;13.440;2022-11-15T15:46:03;11.20;99.90
2054;DHT22;1032;52.542;13.440;2022-11-15T15:48:32;11.20;99.90
2054;DHT22;1032;52.542;13.440;2022-11-15T15:51:02;11.50;99.90
2054;DHT22;1032;52.542;13.440;2022-11-15T15:53:29;11.40;99.90
2054;DHT22;1032;52.542;13.440;2022-11-15T15:55:56;10.90;99.90
2054;DHT22;1032;52.542;13.440;2022-11-15T15:58:24;11.30;99.90
2054;DHT22;1032;52.542;13.440;2022-11-15T16:00:50;11.60;99.90
2054;DHT22;1032;52.542;13.440;2022-11-15T16:03:17;11.10;99.90
2054;DHT22;1032;52.542;13.440;2022-11-15T16:05:45;11.10;99.90
2054;DHT22;1032;52.542;13.440;2022-11-15T16:08:17;11.20;99.90
2054;DHT22;1032;52.542;13.440;2022-11-15T16:10:44;11.40;99.90
2054;DHT22;1032;52.542;13.440;2022-11-15T16:13:10;11.20;99.90
2054;DHT22;1032;52.542;13.440;2022-11-15T16:15:37;11.20;99.90
2054;DHT22;1032;52.542;13.440;2022-11-15T16:18:05;11.50;99.90
2054;DHT22;1032;52.542;13.440;2022-11-15T16:20:35;11.10;99.90
2054;DHT22;1032;52.542;13.440;2022-11-15T16:23:05;11.40;99.90
2054;DHT22;1032;52.542;13.440;2022-11-15T16:25:37;11.00;99.90
2054;DHT22;1032;52.542;13.440;2022-11-15T16:28:04;11.20;99.90
2054;DHT22;1032;52.542;13.440;2022-11-15T16:30:31;10.80;99.90
2054;DHT22;1032;52.542;13.440;2022-11-15T16:32:58;11.30;99.90
2054;DHT22;1032;52.542;13.440;2022-11-15T16:35:25;11.10;99.90
2054;DHT22;1032;52.542;13.440;2022-11-15T16:37:52;10.60;99.90
2054;DHT22;1032;52.542;13.440;2022-11-15T16:40:25;10.60;99.90
2054;DHT22;1032;52.542;13.440;2022-11-15T16:42:52;11.00;99.90
2054;DHT22;1032;52.542;13.440;2022-11-15T16:45:20;10.90;99.90
2054;DHT22;1032;52.542;13.440;2022-11-15T16:47:47;10.20;99.90
2054;DHT22;1032;52.542;13.440;2022-11-15T16:50:19;10.50;99.90
2054;DHT22;1032;52.542;13.440;2022-11-15T16:52:49;10.90;99.90
2054;DHT22;1032;52.542;13.440;2022-11-15T16:55:16;10.50;99.90
2054;DHT22;1032;52.542;13.440;2022-11-15T16:57:44;10.20;99.90
2054;DHT22;1032;52.542;13.440;2022-11-15T17:00:12;10.60;99.90
2054;DHT22;1032;52.542;13.440;2022-11-15T17:02:41;10.30;99.90
2054;DHT22;1032;52.542;13.440;2022-11-15T17:05:08;10.60;99.90
2054;DHT22;1032;52.542;13.440;2022-11-15T17:07:34;10.60;99.90
2054;DHT22;1032;52.542;13.440;2022-11-15T17:10:01;10.40;99.90
2054;DHT22;1032;52.542;13.440;2022-11-15T17:12:28;10.40;99.90
2054;DHT22;1032;52.542;13.440;2022-11-15T17:14:56;10.70;99.90
2054;DHT22;1032;52.542;13.440;2022-11-15T17:17:23;10.50;99.90
2054;DHT22;1032;52.542;13.440;2022-11-15T17:19:50;10.10;99.90
2054;DHT22;1032;52.542;13.440;2022-11-15T17:22:17;10.10;99.90
2054;DHT22;1032;52.542;13.440;2022-11-15T17:24:44;10.20;99.90
2054;DHT22;1032;52.542;13.440;2022-11-15T17:27:10;10.10;99.90
2054;DHT22;1032;52.542;13.440;2022-11-15T17:29:37;10.50;99.90